ADDS METAR Data INFO
IDs: Format: Raw Decoded Include TAF

Data at: 0753 UTC 23 Apr 2018

K5C1 230735Z AUTO 00000KT 10SM CLR 10/06 A3009 RMK AO1
K5C1 230715Z AUTO 00000KT 10SM CLR 10/06 A3009 RMK AO1
K5C1 230655Z AUTO 00000KT 10SM CLR 10/06 A3009 RMK AO1
K5C1 230635Z AUTO 00000KT 10SM CLR 10/06 A3010 RMK AO1
K5C1 230615Z AUTO 00000KT 10SM CLR 10/07 A3009 RMK AO1
K5C1 230555Z AUTO 00000KT 10SM CLR 11/07 A3010 RMK AO1
K5C1 230535Z AUTO 00000KT 10SM CLR 12/07 A3010 RMK AO1
K5C1 230515Z AUTO 00000KT 10SM CLR 12/07 A3009 RMK AO1
K5C1 230455Z AUTO 00000KT 10SM CLR 13/07 A3010 RMK AO1
K5C1 230435Z AUTO 00000KT 10SM CLR 13/07 A3009 RMK AO1
K5C1 230415Z AUTO 00000KT 10SM CLR 15/07 A3008 RMK AO1
K5C1 230355Z AUTO 00000KT 10SM CLR 16/07 A3008 RMK AO1
K5C1 230335Z AUTO 00000KT 10SM CLR 16/08 A3008 RMK AO1
K5C1 230315Z AUTO 00000KT 10SM CLR 18/07 A3007 RMK AO1
K5C1 230255Z AUTO 00000KT 10SM CLR 18/07 A3006 RMK AO1
K5C1 230235Z AUTO 00000KT 10SM CLR 17/07 A3006 RMK AO1
K5C1 230215Z AUTO 00000KT 10SM CLR 18/07 A3006 RMK AO1
K5C1 230155Z AUTO 00000KT 10SM CLR 18/07 A3005 RMK AO1
K5C1 230135Z AUTO 00000KT 10SM CLR 18/07 A3005 RMK AO1
K5C1 230115Z AUTO 00000KT 10SM CLR 20/07 A3004 RMK AO1
K5C1 230055Z AUTO 00000KT 10SM CLR 21/06 A3003 RMK AO1
K5C1 230035Z AUTO 05003KT 10SM CLR 22/06 A3003 RMK AO1
K5C1 230015Z AUTO 02004KT 10SM CLR 22/05 A3003 RMK AO1
K5C1 222355Z AUTO 34004KT 10SM CLR 23/05 A3003 RMK AO1
K5C1 222335Z AUTO 03005KT 10SM CLR 23/05 A3002 RMK AO1
K5C1 222315Z AUTO 35006KT 10SM CLR 23/05 A3002 RMK AO1
K5C1 222255Z AUTO 36006KT 10SM CLR 23/05 A3002 RMK AO1
K5C1 222235Z AUTO 35008KT 10SM CLR 24/05 A3002 RMK AO1
K5C1 222215Z AUTO 02004KT 10SM CLR 24/05 A3002 RMK AO1
K5C1 222155Z AUTO 36008KT 10SM CLR 24/05 A3002 RMK AO1
K5C1 222135Z AUTO 31004KT 10SM CLR 24/05 A3003 RMK AO1
K5C1 222115Z AUTO 36005G14KT 10SM CLR 24/05 A3004 RMK AO1
K5C1 222055Z AUTO 34006KT 10SM CLR 23/04 A3005 RMK AO1
K5C1 222035Z AUTO 35004KT 10SM CLR 23/06 A3006 RMK AO1
K5C1 222015Z AUTO 34003KT 10SM CLR 22/06 A3007 RMK AO1
K5C1 221955Z AUTO 36007KT 10SM CLR 22/07 A3008 RMK AO1
K5C1 221935Z AUTO 35007KT 10SM CLR 21/06 A3009 RMK AO1
K5C1 221915Z AUTO 34006KT 10SM CLR 21/06 A3010 RMK AO1
K5C1 221855Z AUTO 03007KT 10SM CLR 20/06 A3010 RMK AO1
K5C1 221835Z AUTO 05007KT 10SM CLR 20/06 A3011 RMK AO1
K5C1 221815Z AUTO 35010KT 10SM CLR 20/06 A3012 RMK AO1
K5C1 221755Z AUTO 34008KT 320V020 10SM CLR 19/07 A3013 RMK AO1
K5C1 221735Z AUTO 03009G17KT 10SM CLR 18/06 A3014 RMK AO1
K5C1 221715Z AUTO 01012G17KT 10SM CLR 18/06 A3015 RMK AO1
K5C1 221655Z AUTO 36011G14KT 10SM CLR 17/07 A3015 RMK AO1 P0001
K5C1 221635Z AUTO 36010G16KT 10SM CLR 16/07 A3015 RMK AO1 P0001
K5C1 221615Z AUTO 01008G16KT 10SM CLR 16/07 A3015 RMK AO1
K5C1 221555Z AUTO 36012G15KT 10SM CLR 16/07 A3015 RMK AO1
K5C1 221535Z AUTO 01016G21KT 10SM CLR 15/06 A3015 RMK AO1
K5C1 221515Z AUTO 36011G17KT 10SM CLR 14/07 A3014 RMK AO1
K5C1 221455Z AUTO 35011G17KT 10SM CLR 13/07 A3014 RMK AO1
K5C1 221435Z AUTO 36012G18KT 10SM CLR 13/07 A3014 RMK AO1
K5C1 221415Z AUTO 36010G20KT 10SM CLR 12/07 A3014 RMK AO1
K5C1 221355Z AUTO 36010G18KT 10SM CLR 12/07 A3013 RMK AO1
K5C1 221330Z AUTO 35011G17KT 10SM CLR 11/07 A3012 RMK AO1
K5C1 221315Z AUTO 36011G16KT 10SM CLR 11/07 A3012 RMK AO1
K5C1 221255Z AUTO 35011G16KT 10SM CLR 10/07 A3011 RMK AO1
K5C1 221235Z AUTO 35007G15KT 10SM CLR 10/07 A3010 RMK AO1
K5C1 221215Z AUTO 35008G14KT 10SM CLR 10/07 A3009 RMK AO1
K5C1 221155Z AUTO 36010G15KT 10SM CLR 10/07 A3009 RMK AO1
K5C1 221135Z AUTO 36009KT 10SM CLR 10/07 A3009 RMK AO1
K5C1 221115Z AUTO 36007KT 10SM CLR 10/07 A3009 RMK AO1
K5C1 221055Z AUTO 36005KT 10SM CLR 10/07 A3008 RMK AO1
K5C1 221035Z AUTO 36011KT 10SM CLR 10/07 A3008 RMK AO1
K5C1 221015Z AUTO 35011KT 10SM CLR 11/07 A3007 RMK AO1
K5C1 220955Z AUTO 36011G15KT 10SM CLR 11/08 A3007 RMK AO1
K5C1 220935Z AUTO 36011G16KT 10SM CLR 11/07 A3006 RMK AO1
K5C1 220915Z AUTO 36013KT 10SM CLR 11/07 A3006 RMK AO1
K5C1 220855Z AUTO 36009KT 10SM CLR 11/08 A3006 RMK AO1
K5C1 220835Z AUTO 01010KT 10SM CLR 12/08 A3006 RMK AO1
K5C1 220815Z AUTO 01008G14KT 10SM CLR 12/08 A3006 RMK AO1
K5C1 220755Z AUTO 36009KT 10SM CLR 12/08 A3007 RMK AO1
K5C1 220735Z AUTO 36011G15KT 10SM CLR 13/08 A3007 RMK AO1
K5C1 220715Z AUTO 36011G19KT 10SM CLR 13/08 A3007 RMK AO1
K5C1 220655Z AUTO 36014G23KT 10SM CLR 14/08 A3007 RMK AO1
K5C1 220635Z AUTO 36012KT 10SM CLR 15/07 A3006 RMK AO1
K5C1 220615Z AUTO 36008G15KT 10SM CLR 15/08 A3007 RMK AO1
K5C1 220555Z AUTO 34006G15KT 10SM CLR 15/08 A3006 RMK AO1
K5C1 220535Z AUTO 36009G14KT 10SM CLR 16/09 A3006 RMK AO1
K5C1 220515Z AUTO 36009KT 10SM CLR 17/10 A3005 RMK AO1
K5C1 220455Z AUTO 35009G18KT 10SM CLR 17/11 A3004 RMK AO1
K5C1 220435Z AUTO 36006KT 10SM CLR 17/12 A3003 RMK AO1
K5C1 220415Z AUTO 35007KT 10SM CLR 18/13 A3002 RMK AO1
K5C1 220355Z AUTO 34006G17KT 10SM CLR 16/15 A2999 RMK AO1
K5C1 220335Z AUTO 00000KT 10SM CLR 15/14 A2996 RMK AO1
K5C1 220315Z AUTO 00000KT 10SM CLR 15/14 A2995 RMK AO1
K5C1 220255Z AUTO 27003KT 10SM CLR 16/15 A2994 RMK AO1
K5C1 220235Z AUTO 00000KT 10SM CLR 17/15 A2994 RMK AO1
K5C1 220215Z AUTO 28003KT 10SM CLR 17/15 A2993 RMK AO1
K5C1 220155Z AUTO 00000KT 10SM CLR 17/16 A2992 RMK AO1
K5C1 220135Z AUTO 21003KT 10SM CLR 18/16 A2991 RMK AO1
K5C1 220115Z AUTO 19003KT 10SM CLR 19/16 A2991 RMK AO1
K5C1 220055Z AUTO 00000KT 10SM CLR 21/16 A2991 RMK AO1
K5C1 220035Z AUTO 18004KT 10SM CLR 23/16 A2990 RMK AO1
K5C1 220015Z AUTO 00000KT 10SM CLR 23/16 A2990 RMK AO1
K5C1 212355Z AUTO 17003KT 10SM CLR 24/16 A2990 RMK AO1
K5C1 212335Z AUTO 16003KT 10SM CLR 24/17 A2990 RMK AO1
K5C1 212315Z AUTO 16004KT 10SM CLR 23/17 A2990 RMK AO1
K5C1 212255Z AUTO 14003KT 10SM SCT035 23/17 A2990 RMK AO1
K5C1 212235Z AUTO 00000KT 10SM SCT030 BKN038 23/17 A2991 RMK AO1
K5C1 212215Z AUTO 17004KT 10SM SCT028 SCT033 BKN038 23/18 A2991 RMK AO1
K5C1 212155Z AUTO 16004KT 10SM BKN026 OVC038 22/18 A2991 RMK AO1
K5C1 212135Z AUTO 00000KT 10SM SCT021 OVC026 21/17 A2992 RMK AO1
K5C1 212115Z AUTO 17006KT 10SM SCT021 BKN028 OVC035 21/18 A2992 RMK AO1
K5C1 212055Z AUTO 16004KT 10SM BKN026 OVC032 21/18 A2993 RMK AO1
K5C1 212035Z AUTO 17004KT 10SM SCT017 BKN026 OVC031 22/18 A2993 RMK AO1
K5C1 212015Z AUTO 17005KT 10SM OVC017 21/18 A2994 RMK AO1
K5C1 211955Z AUTO 16006KT 10SM BKN017 OVC035 21/18 A2994 RMK AO1